createdAt,value
2018-11-26T00:00:49.441Z,18.3
2018-11-26T00:01:51.063Z,18.3
2018-11-26T00:02:52.383Z,18.3
2018-11-26T00:03:54.004Z,18.2
2018-11-26T00:04:55.604Z,18.2
2018-11-26T00:05:57.224Z,18.2
2018-11-26T00:06:59.117Z,18.3
2018-11-26T00:08:01.011Z,18.2
2018-11-26T00:09:02.339Z,18.1
2018-11-26T00:10:04.235Z,18.2
2018-11-26T00:11:06.133Z,18.1
2018-11-26T00:12:07.463Z,18.2
2018-11-26T00:13:09.356Z,18.1
2018-11-26T00:14:11.254Z,18.1
2018-11-26T00:15:12.601Z,18.2
2018-11-26T00:16:14.493Z,18.2
2018-11-26T00:17:16.388Z,18.1
2018-11-26T00:18:18.285Z,18.3
2018-11-26T00:19:19.629Z,18.2
2018-11-26T00:20:20.679Z,18.2
2018-11-26T00:21:22.004Z,18.1
2018-11-26T00:22:23.625Z,18.1
2018-11-26T00:23:25.243Z,18.3
2018-11-26T00:24:26.594Z,18.1
2018-11-26T00:25:28.218Z,18.2
2018-11-26T00:26:29.816Z,18.1
2018-11-26T00:27:31.436Z,18.1
2018-11-26T00:28:32.780Z,18.2
2018-11-26T00:29:34.379Z,18.2
2018-11-26T00:30:35.728Z,18.1
2018-11-26T00:31:36.779Z,18.2
2018-11-26T00:32:37.852Z,18.1
2018-11-26T00:33:39.478Z,18.2
2018-11-26T00:34:41.102Z,18.2
2018-11-26T00:35:42.997Z,17.9
2018-11-26T00:36:44.893Z,18
2018-11-26T00:37:46.789Z,18
2018-11-26T00:38:48.410Z,18
2018-11-26T00:39:49.456Z,18.1
2018-11-26T00:40:51.077Z,18
2018-11-26T00:41:52.399Z,18
2018-11-26T00:42:54.022Z,18.1
2018-11-26T00:43:55.642Z,18.1
2018-11-26T00:44:57.281Z,18.1
2018-11-26T00:45:58.888Z,18.1
2018-11-26T00:47:00.779Z,18.1
2018-11-26T00:48:02.380Z,18
2018-11-26T00:49:03.982Z,18.1
2018-11-26T00:50:05.621Z,18
2018-11-26T00:51:06.676Z,18.1
2018-11-26T00:52:08.570Z,18
2018-11-26T00:53:10.467Z,18.1
2018-11-26T00:54:12.447Z,18.1
2018-11-26T00:55:13.774Z,18
2018-11-26T00:56:15.122Z,18
2018-11-26T00:57:17.232Z,18
2018-11-26T00:58:18.574Z,18
2018-11-26T00:59:20.203Z,18
2018-11-26T01:00:22.093Z,18
2018-11-26T01:01:23.715Z,18
2018-11-26T01:02:25.329Z,18
2018-11-26T01:03:26.931Z,18
2018-11-26T01:04:28.255Z,18.1
2018-11-26T01:05:31.018Z,18
2018-11-26T01:06:32.368Z,18
2018-11-26T01:07:33.716Z,18.2
2018-11-26T01:08:35.045Z,18.1
2018-11-26T01:09:36.944Z,18.1
2018-11-26T01:10:38.838Z,18.1
2018-11-26T01:11:40.184Z,18.1
2018-11-26T01:12:41.236Z,18.1
2018-11-26T01:13:43.130Z,18
2018-11-26T01:14:44.458Z,18
2018-11-26T01:15:46.353Z,18.1
2018-11-26T01:16:47.704Z,18
2018-11-26T01:17:49.604Z,18.1
2018-11-26T01:18:51.225Z,18
2018-11-26T01:19:53.120Z,18.1
2018-11-26T01:20:55.019Z,18.1
2018-11-26T01:21:56.919Z,18.1
2018-11-26T01:22:58.269Z,18.1
2018-11-26T01:24:00.165Z,18.2
2018-11-26T01:25:02.063Z,18.1
2018-11-26T01:26:03.388Z,18.2
2018-11-26T01:27:04.987Z,18.1
2018-11-26T01:28:06.609Z,18.1
2018-11-26T01:29:07.962Z,18
2018-11-26T01:30:09.856Z,18
2018-11-26T01:31:11.480Z,18
2018-11-26T01:32:13.079Z,18
2018-11-26T01:33:14.680Z,18
2018-11-26T01:34:16.576Z,18
2018-11-26T01:35:18.471Z,18
2018-11-26T01:36:20.092Z,18
2018-11-26T01:37:21.721Z,18
2018-11-26T01:38:23.617Z,18
2018-11-26T01:39:24.968Z,17.9
2018-11-26T01:40:26.313Z,18
2018-11-26T01:41:28.210Z,17.9
2018-11-26T01:42:30.105Z,18
2018-11-26T01:43:31.432Z,18
2018-11-26T01:44:32.773Z,18
2018-11-26T01:45:34.677Z,18
2018-11-26T01:46:36.573Z,18
2018-11-26T01:47:38.478Z,18
2018-11-26T01:48:40.375Z,18
2018-11-26T01:49:42.272Z,18
2018-11-26T01:50:43.616Z,18
2018-11-26T01:51:45.240Z,18
2018-11-26T01:52:46.860Z,18
2018-11-26T01:53:47.916Z,18
2018-11-26T01:54:49.814Z,18
2018-11-26T01:55:51.162Z,18
2018-11-26T01:56:52.485Z,18
2018-11-26T01:57:53.834Z,18
2018-11-26T01:58:55.182Z,18
2018-11-26T01:59:56.784Z,18
2018-11-26T02:00:58.680Z,18
2018-11-26T02:02:00.615Z,18
2018-11-26T02:03:02.248Z,18
2018-11-26T02:04:04.145Z,17.9
2018-11-26T02:05:06.042Z,18
2018-11-26T02:06:07.392Z,18
2018-11-26T02:07:09.289Z,18
2018-11-26T02:08:10.916Z,18
2018-11-26T02:09:12.533Z,18
2018-11-26T02:10:14.431Z,18
2018-11-26T02:11:16.057Z,18
2018-11-26T02:12:17.951Z,18
2018-11-26T02:13:19.849Z,18.1
2018-11-26T02:14:21.184Z,18.1
2018-11-26T02:15:22.857Z,18.1
2018-11-26T02:16:24.464Z,18
2018-11-26T02:17:26.084Z,18
2018-11-26T02:18:27.685Z,18
2018-11-26T02:19:29.013Z,18
2018-11-26T02:20:30.638Z,17.9
2018-11-26T02:21:31.686Z,17.9
2018-11-26T02:22:33.310Z,17.9
2018-11-26T02:23:34.660Z,17.9
2018-11-26T02:24:36.281Z,17.9
2018-11-26T02:25:37.334Z,18
2018-11-26T02:26:39.235Z,18
2018-11-26T02:27:41.129Z,18
2018-11-26T02:28:43.026Z,17.9
2018-11-26T02:29:44.922Z,17.9
2018-11-26T02:30:46.819Z,17.9
2018-11-26T02:31:48.443Z,17.9
2018-11-26T02:32:50.340Z,18
2018-11-26T02:33:51.982Z,18
2018-11-26T02:34:53.879Z,18
2018-11-26T02:35:55.773Z,18
2018-11-26T02:36:57.373Z,18
2018-11-26T02:37:58.992Z,17.9
2018-11-26T02:39:00.636Z,17.9
2018-11-26T02:40:02.532Z,18.1
2018-11-26T02:41:04.154Z,17.9
2018-11-26T02:42:05.777Z,17.9
2018-11-26T02:43:07.399Z,17.9
2018-11-26T02:44:09.299Z,18
2018-11-26T02:45:10.923Z,17.9
2018-11-26T02:46:12.248Z,17.8
2018-11-26T02:47:14.149Z,17.9
2018-11-26T02:48:16.045Z,17.8
2018-11-26T02:49:17.948Z,17.9
2018-11-26T02:50:19.862Z,17.8
2018-11-26T02:51:21.190Z,17.9
2018-11-26T02:52:22.513Z,17.8
2018-11-26T02:53:24.408Z,17.9
2018-11-26T02:54:26.026Z,17.9
2018-11-26T02:55:27.117Z,17.9
2018-11-26T02:56:28.737Z,17.9
2018-11-26T02:57:30.065Z,17.9
2018-11-26T02:58:31.685Z,18
2018-11-26T02:59:33.582Z,17.9
2018-11-26T03:00:35.201Z,17.8
2018-11-26T03:01:36.824Z,17.9
2018-11-26T03:02:38.728Z,17.9
2018-11-26T03:03:40.078Z,17.9
2018-11-26T03:04:41.699Z,17.8
2018-11-26T03:05:43.031Z,17.9
2018-11-26T03:06:44.650Z,17.9
2018-11-26T03:07:46.546Z,17.8
2018-11-26T03:08:48.171Z,17.8
2018-11-26T03:09:49.503Z,17.9
2018-11-26T03:10:51.115Z,17.9
2018-11-26T03:11:52.440Z,17.8
2018-11-26T03:12:54.062Z,17.8
2018-11-26T03:13:55.959Z,17.8
2018-11-26T03:14:57.582Z,17.8
2018-11-26T03:15:59.477Z,17.8
2018-11-26T03:17:00.864Z,17.9
2018-11-26T03:18:02.192Z,17.8
2018-11-26T03:19:03.819Z,17.9
2018-11-26T03:20:05.436Z,17.9
2018-11-26T03:21:07.063Z,17.9
2018-11-26T03:22:08.956Z,18
2018-11-26T03:23:10.581Z,17.8
2018-11-26T03:24:12.474Z,17.9
2018-11-26T03:25:14.099Z,17.9
2018-11-26T03:26:15.170Z,17.9
2018-11-26T03:27:16.792Z,17.9
2018-11-26T03:28:18.686Z,17.8
2018-11-26T03:29:20.309Z,17.9
2018-11-26T03:30:22.211Z,17.9
2018-11-26T03:31:23.874Z,17.9
2018-11-26T03:32:25.491Z,17.8
2018-11-26T03:33:27.127Z,17.9
2018-11-26T03:34:28.729Z,17.9
2018-11-26T03:35:30.077Z,17.9
2018-11-26T03:36:31.976Z,17.9
2018-11-26T03:37:33.326Z,17.9
2018-11-26T03:38:34.651Z,17.9
2018-11-26T03:39:35.997Z,17.9
2018-11-26T03:40:37.344Z,17.9
2018-11-26T03:41:39.240Z,17.9
2018-11-26T03:42:41.134Z,18
2018-11-26T03:43:42.767Z,18
2018-11-26T03:44:44.652Z,18
2018-11-26T03:45:46.255Z,18.1
2018-11-26T03:46:48.154Z,18
2018-11-26T03:47:49.778Z,18
2018-11-26T03:48:51.399Z,18
2018-11-26T03:49:53.294Z,18
2018-11-26T03:50:55.205Z,18
2018-11-26T03:51:56.830Z,18
2018-11-26T03:52:58.725Z,18
2018-11-26T03:54:00.325Z,18
2018-11-26T03:55:01.676Z,18
2018-11-26T03:56:03.574Z,18
2018-11-26T03:57:05.176Z,18.1
2018-11-26T03:58:06.779Z,18.1
2018-11-26T03:59:08.682Z,18.1
2018-11-26T04:00:10.572Z,18
2018-11-26T04:01:12.209Z,18.1
2018-11-26T04:02:13.802Z,18
2018-11-26T04:03:14.869Z,18
2018-11-26T04:04:16.490Z,18
2018-11-26T04:05:17.813Z,18
2018-11-26T04:06:19.147Z,18
2018-11-26T04:07:20.491Z,18.1
2018-11-26T04:08:22.388Z,18
2018-11-26T04:09:24.284Z,18
2018-11-26T04:10:26.183Z,18
2018-11-26T04:11:27.786Z,18
2018-11-26T04:12:29.407Z,18.1
2018-11-26T04:13:31.028Z,18.1
2018-11-26T04:14:32.651Z,18.1
2018-11-26T04:15:33.974Z,18.1
2018-11-26T04:16:35.874Z,18.2
2018-11-26T04:17:37.498Z,18.1
2018-11-26T04:18:39.394Z,18.1
2018-11-26T04:19:41.292Z,18
2018-11-26T04:20:43.252Z,18.1
2018-11-26T04:21:45.148Z,18.1
2018-11-26T04:22:46.772Z,18.1
2018-11-26T04:23:48.392Z,18.1
2018-11-26T04:24:49.721Z,18.2
2018-11-26T04:25:51.049Z,18.2
2018-11-26T04:26:52.945Z,18.2
2018-11-26T04:27:54.845Z,18.2
2018-11-26T04:28:56.463Z,18.2
2018-11-26T04:29:58.366Z,18.1
2018-11-26T04:31:00.012Z,18.2
2018-11-26T04:32:01.950Z,18.2
2018-11-26T04:33:03.857Z,18.2
2018-11-26T04:34:05.478Z,18.1
2018-11-26T04:35:06.528Z,18.1
2018-11-26T04:36:08.126Z,18.1
2018-11-26T04:37:09.474Z,18.2
2018-11-26T04:38:10.804Z,18.2
2018-11-26T04:39:11.580Z,18.1
2018-11-26T04:40:12.926Z,18.2
2018-11-26T04:41:14.561Z,18.2
2018-11-26T04:42:16.183Z,18.2
2018-11-26T04:43:17.782Z,18.2
2018-11-26T04:44:19.383Z,18.3
2018-11-26T04:45:21.280Z,18.2
2018-11-26T04:46:23.176Z,18.3
2018-11-26T04:47:24.795Z,18.4
2018-11-26T04:48:26.696Z,18.3
2018-11-26T04:49:27.748Z,18.3
2018-11-26T04:50:29.094Z,18.4
2018-11-26T04:51:30.720Z,18.3
2018-11-26T04:52:31.778Z,18.3
2018-11-26T04:53:33.398Z,18.3
2018-11-26T04:54:35.302Z,18.3
2018-11-26T04:55:36.930Z,18.2
2018-11-26T04:56:38.253Z,18.3
2018-11-26T04:57:42.258Z,18.3
2018-11-26T04:58:44.535Z,18.3
2018-11-26T04:59:46.146Z,18.3
2018-11-26T05:00:47.766Z,18.3
2018-11-26T05:01:49.101Z,18.3
2018-11-26T05:02:50.699Z,18.5
2018-11-26T05:03:52.300Z,18.4
2018-11-26T05:04:53.920Z,18.4
2018-11-26T05:05:55.817Z,18.4
2018-11-26T05:06:57.756Z,18.3
2018-11-26T05:07:59.381Z,18.4
2018-11-26T05:09:01.291Z,18.3
2018-11-26T05:10:03.178Z,18.3
2018-11-26T05:11:04.504Z,18.3
2018-11-26T05:12:06.125Z,18.2
2018-11-26T05:13:07.478Z,18.2
2018-11-26T05:14:09.372Z,18.3
2018-11-26T05:15:10.716Z,18.3
2018-11-26T05:16:12.066Z,18.3
2018-11-26T05:17:13.114Z,18.3
2018-11-26T05:18:14.736Z,18.3
2018-11-26T05:19:16.082Z,18.4
2018-11-26T05:20:17.707Z,18.4
2018-11-26T05:21:19.328Z,18.4
2018-11-26T05:22:20.950Z,18.4
2018-11-26T05:23:22.853Z,18.4
2018-11-26T05:24:24.752Z,18.4
2018-11-26T05:25:26.646Z,18.4
2018-11-26T05:26:27.701Z,18.4
2018-11-26T05:27:29.322Z,18.4
2018-11-26T05:28:30.926Z,18.3
2018-11-26T05:29:32.819Z,18.3
2018-11-26T05:30:34.715Z,18.4
2018-11-26T05:31:36.060Z,18.3
2018-11-26T05:32:37.678Z,18.3
2018-11-26T05:33:39.295Z,18.4
2018-11-26T05:34:40.916Z,18.3
2018-11-26T05:35:42.816Z,18.4
2018-11-26T05:36:44.412Z,18.4
2018-11-26T05:37:46.030Z,18.4
2018-11-26T05:38:47.658Z,18.4
2018-11-26T05:39:49.550Z,18.5
2018-11-26T05:40:51.176Z,18.5
2018-11-26T05:41:53.075Z,18.4
2018-11-26T05:42:54.974Z,18.4
2018-11-26T05:43:56.315Z,18.5
2018-11-26T05:44:57.667Z,18.4
2018-11-26T05:45:59.566Z,18.4
2018-11-26T05:47:01.188Z,18.5
2018-11-26T05:48:02.820Z,18.5
2018-11-26T05:49:04.419Z,18.4
2018-11-26T05:50:05.747Z,18.4
2018-11-26T05:51:07.643Z,18.4
2018-11-26T05:52:08.711Z,18.4
2018-11-26T05:53:10.610Z,18.4
2018-11-26T05:54:12.230Z,18.4
2018-11-26T05:55:14.131Z,18.3
2018-11-26T05:56:15.726Z,18.3
2018-11-26T05:57:17.076Z,18.5
2018-11-26T05:58:18.973Z,18.5
2018-11-26T05:59:20.870Z,18.5
2018-11-26T06:00:22.496Z,18.4
2018-11-26T06:01:24.122Z,18.4
2018-11-26T06:02:25.185Z,18.4
2018-11-26T06:03:26.807Z,18.5
2018-11-26T06:04:28.426Z,18.5
2018-11-26T06:05:30.323Z,18.4
2018-11-26T06:06:31.945Z,18.3
2018-11-26T06:07:33.841Z,18.4
2018-11-26T06:08:35.169Z,18.3
2018-11-26T06:09:37.064Z,18.4
2018-11-26T06:10:38.962Z,18.4
2018-11-26T06:11:40.584Z,18.4
2018-11-26T06:12:42.205Z,18.5
2018-11-26T06:13:43.805Z,18.3
2018-11-26T06:14:45.702Z,18.3
2018-11-26T06:15:47.636Z,18.3
2018-11-26T06:16:53.537Z,18.4
2018-11-26T06:17:55.054Z,18.4
2018-11-26T06:18:56.671Z,18.4
2018-11-26T06:19:58.292Z,18.4
2018-11-26T06:20:59.916Z,18.3
2018-11-26T06:22:01.814Z,18.3
2018-11-26T06:23:03.435Z,18.2
2018-11-26T06:24:05.332Z,18.3
2018-11-26T06:25:06.955Z,18.3
2018-11-26T06:26:08.283Z,18.3
2018-11-26T06:27:09.643Z,18.4
2018-11-26T06:28:11.258Z,18.4
2018-11-26T06:29:13.152Z,18.4
2018-11-26T06:30:14.486Z,18.5
2018-11-26T06:31:16.385Z,18.3
2018-11-26T06:32:18.006Z,18.3
2018-11-26T06:33:19.630Z,18.2
2018-11-26T06:34:21.524Z,18.1
2018-11-26T06:35:23.132Z,18.1
2018-11-26T06:36:24.456Z,18.2
2018-11-26T06:37:26.350Z,18.3
2018-11-26T06:38:27.694Z,18.2
2018-11-26T06:39:29.322Z,18.2
2018-11-26T06:40:31.217Z,18.2
2018-11-26T06:41:32.839Z,18.2
2018-11-26T06:42:34.458Z,18.2
2018-11-26T06:43:35.800Z,18.3
2018-11-26T06:44:37.422Z,18.3
2018-11-26T06:45:39.322Z,18.3
2018-11-26T06:46:40.919Z,18.3
2018-11-26T06:47:42.542Z,18.4
2018-11-26T06:48:45.343Z,18.3
2018-11-26T06:49:47.305Z,18.1
2018-11-26T06:50:48.927Z,18.1
2018-11-26T06:51:50.826Z,18.1
2018-11-26T06:52:52.719Z,18.2
2018-11-26T06:53:54.656Z,18.2
2018-11-26T06:54:56.259Z,18.1
2018-11-26T06:55:58.199Z,18.2
2018-11-26T06:57:00.106Z,18.1
2018-11-26T06:58:01.162Z,18.2
2018-11-26T06:59:03.057Z,18.2
2018-11-26T07:00:04.680Z,18.2
2018-11-26T07:01:06.021Z,18.1
2018-11-26T07:02:07.369Z,18.1
2018-11-26T07:03:08.437Z,18.2
2018-11-26T07:04:10.052Z,18.2
2018-11-26T07:05:11.678Z,18.1
2018-11-26T07:06:13.307Z,18.3
2018-11-26T07:07:15.011Z,18.3
2018-11-26T07:08:16.465Z,18.3
2018-11-26T07:09:18.095Z,18.3
2018-11-26T07:10:19.992Z,18.3
2018-11-26T07:11:21.898Z,18.2
2018-11-26T07:12:23.796Z,18.3
2018-11-26T07:13:25.544Z,18.3
2018-11-26T07:14:27.179Z,18.2
2018-11-26T07:15:28.511Z,18.1
2018-11-26T07:16:30.409Z,18.2
2018-11-26T07:17:32.031Z,18.2
2018-11-26T07:18:33.933Z,18.2
2018-11-26T07:19:35.575Z,18.2
2018-11-26T07:20:37.262Z,18.1
2018-11-26T07:21:38.630Z,18.2
2018-11-26T07:22:40.243Z,18.2
2018-11-26T07:23:41.861Z,18.2
2018-11-26T07:24:43.765Z,18.2
2018-11-26T07:25:45.668Z,18.3
2018-11-26T07:26:47.565Z,18.2
2018-11-26T07:27:48.903Z,18.3
2018-11-26T07:28:50.518Z,18.3
2018-11-26T07:29:52.129Z,18.3
2018-11-26T07:30:53.178Z,18.5
2018-11-26T07:31:54.804Z,18.4
2018-11-26T07:32:56.819Z,18.5
2018-11-26T07:33:58.428Z,18.5
2018-11-26T07:35:00.108Z,18.5
2018-11-26T07:36:01.441Z,18.5
2018-11-26T07:37:03.662Z,18.3
2018-11-26T07:38:05.295Z,18.4
2018-11-26T07:39:07.001Z,18.4
2018-11-26T07:40:08.655Z,18.4
2018-11-26T07:41:10.457Z,18.4
2018-11-26T07:42:12.357Z,18.4
2018-11-26T07:43:13.688Z,18.4
2018-11-26T07:44:15.586Z,18.4
2018-11-26T07:45:17.488Z,18.4
2018-11-26T07:46:18.276Z,18.4
2018-11-26T07:47:19.629Z,18.4
2018-11-26T07:48:21.269Z,18.4
2018-11-26T07:49:23.428Z,18.5
2018-11-26T07:50:25.048Z,18.5
2018-11-26T07:51:26.979Z,18.5
2018-11-26T07:52:28.886Z,18.4
2018-11-26T07:53:30.227Z,18.5
2018-11-26T07:54:31.853Z,18.5
2018-11-26T07:55:33.221Z,18.5
2018-11-26T07:56:34.556Z,18.5
2018-11-26T07:57:36.457Z,18.5
2018-11-26T07:58:38.060Z,18.6
2018-11-26T07:59:39.964Z,18.5
2018-11-26T08:00:41.865Z,18.5
2018-11-26T08:01:43.765Z,18.5
2018-11-26T08:02:45.392Z,18.6
2018-11-26T08:03:47.025Z,18.5
2018-11-26T08:04:49.231Z,18.6
2018-11-26T08:05:51.129Z,18.6
2018-11-26T08:06:52.623Z,18.6
2018-11-26T08:07:54.506Z,18.6
2018-11-26T08:08:56.447Z,18.5
2018-11-26T08:09:58.133Z,18.6
2018-11-26T08:10:59.461Z,18.6
2018-11-26T08:12:01.366Z,18.6
2018-11-26T08:13:03.264Z,18.6
2018-11-26T08:14:04.598Z,18.7
2018-11-26T08:15:06.497Z,18.7
2018-11-26T08:16:08.395Z,18.6
2018-11-26T08:17:10.028Z,18.6
2018-11-26T08:18:11.924Z,18.7
2018-11-26T08:19:13.551Z,18.7
2018-11-26T08:20:15.452Z,18.7
2018-11-26T08:21:16.780Z,18.6
2018-11-26T08:22:18.407Z,18.6
2018-11-26T08:23:20.332Z,18.7
2018-11-26T08:24:21.936Z,18.7
2018-11-26T08:25:23.289Z,18.6
2018-11-26T08:26:25.189Z,18.7
2018-11-26T08:27:26.815Z,18.6
2018-11-26T08:28:28.441Z,18.5
2018-11-26T08:29:30.341Z,18.6
2018-11-26T08:30:31.690Z,18.7
2018-11-26T08:31:33.314Z,18.6
2018-11-26T08:32:34.659Z,18.6
2018-11-26T08:33:36.279Z,18.6
2018-11-26T08:34:37.625Z,18.5
2018-11-26T08:35:39.257Z,18.6
2018-11-26T08:36:41.158Z,18.4
2018-11-26T08:37:42.775Z,18.6
2018-11-26T08:38:44.380Z,18.5
2018-11-26T08:39:46.284Z,18.6
2018-11-26T08:40:48.204Z,18.5
2018-11-26T08:41:50.105Z,18.6
2018-11-26T08:42:51.440Z,18.6
2018-11-26T08:43:52.523Z,18.6
2018-11-26T08:44:54.185Z,18.7
2018-11-26T08:45:55.816Z,18.7
2018-11-26T08:46:57.169Z,18.7
2018-11-26T08:47:58.789Z,18.7
2018-11-26T08:49:00.419Z,18.7
2018-11-26T08:50:01.861Z,18.7
2018-11-26T08:51:03.495Z,18.7
2018-11-26T08:52:04.856Z,18.7
2018-11-26T08:53:06.191Z,18.6
2018-11-26T08:54:07.826Z,18.7
2018-11-26T08:55:08.884Z,18.7
2018-11-26T08:56:10.823Z,18.6
2018-11-26T08:57:12.723Z,18.7
2018-11-26T08:58:14.342Z,18.7
2018-11-26T08:59:15.971Z,18.7
2018-11-26T09:00:17.593Z,18.6
2018-11-26T09:01:19.216Z,18.7
2018-11-26T09:02:21.113Z,18.7
2018-11-26T09:03:22.715Z,18.8
2018-11-26T09:04:24.115Z,18.7
2018-11-26T09:05:25.740Z,18.7
2018-11-26T09:06:27.344Z,18.7
2018-11-26T09:07:28.969Z,18.8
2018-11-26T09:08:30.298Z,18.8
2018-11-26T09:09:32.842Z,18.8
2018-11-26T09:10:34.647Z,18.8
2018-11-26T09:11:36.540Z,18.9
2018-11-26T09:12:37.891Z,18.8
2018-11-26T09:13:39.793Z,18.8
2018-11-26T09:14:41.123Z,18.9
2018-11-26T09:15:42.750Z,18.9
2018-11-26T09:16:44.645Z,18.8
2018-11-26T09:17:46.269Z,18.9
2018-11-26T09:18:47.895Z,18.8
2018-11-26T09:19:49.246Z,18.8
2018-11-26T09:20:50.854Z,19
2018-11-26T09:21:52.752Z,18.8
2018-11-26T09:22:54.378Z,18.9
2018-11-26T09:23:55.983Z,19
2018-11-26T09:24:57.614Z,18.8
2018-11-26T09:25:59.521Z,18.9
2018-11-26T09:27:01.130Z,18.9
2018-11-26T09:28:10.156Z,18.9
2018-11-26T09:29:11.492Z,18.9
2018-11-26T09:30:13.715Z,18.9
2018-11-26T09:31:15.129Z,18.9
2018-11-26T09:32:16.817Z,18.9
2018-11-26T09:33:18.745Z,18.8
2018-11-26T09:34:20.372Z,18.8
2018-11-26T09:35:22.008Z,18.9
2018-11-26T09:36:23.914Z,19
2018-11-26T09:37:25.253Z,18.9
2018-11-26T09:38:27.156Z,18.9
2018-11-26T09:39:28.618Z,18.8
2018-11-26T09:40:30.257Z,18.9
2018-11-26T09:41:31.937Z,18.8
2018-11-26T09:42:33.896Z,18.8
2018-11-26T09:43:35.505Z,18.9
2018-11-26T09:44:36.842Z,18.8
2018-11-26T09:45:40.364Z,19
2018-11-26T09:46:42.239Z,18.9
2018-11-26T09:47:43.844Z,18.9
2018-11-26T09:48:45.226Z,19
2018-11-26T09:49:46.864Z,18.9
2018-11-26T09:50:48.356Z,18.9
2018-11-26T09:51:49.497Z,18.9
2018-11-26T09:52:51.140Z,18.9
2018-11-26T09:53:52.900Z,18.9
2018-11-26T09:54:54.569Z,18.9
2018-11-26T09:55:56.352Z,19
2018-11-26T09:56:58.320Z,18.9
2018-11-26T09:58:00.486Z,18.9
2018-11-26T09:59:02.405Z,18.9
2018-11-26T10:00:04.840Z,18.9
2018-11-26T10:01:06.251Z,18.9
2018-11-26T10:02:07.678Z,18.9
2018-11-26T10:03:08.732Z,18.9
2018-11-26T10:04:10.131Z,19
2018-11-26T10:05:11.747Z,18.9
2018-11-26T10:06:13.679Z,18.9
2018-11-26T10:07:15.755Z,18.9
2018-11-26T10:08:17.509Z,19
2018-11-26T10:09:19.482Z,19
2018-11-26T10:10:21.521Z,18.9
2018-11-26T10:11:23.205Z,18.9
2018-11-26T10:12:25.351Z,18.9
2018-11-26T10:13:27.098Z,18.9
2018-11-26T10:14:28.745Z,18.9
2018-11-26T10:15:30.352Z,19
2018-11-26T10:16:31.715Z,19
2018-11-26T10:17:33.068Z,18.9
2018-11-26T10:18:34.152Z,18.9
2018-11-26T10:19:35.497Z,19
2018-11-26T10:20:37.395Z,18.8
2018-11-26T10:21:38.726Z,18.9
2018-11-26T10:22:40.052Z,18.9
2018-11-26T10:23:41.952Z,18.9
2018-11-26T10:24:43.275Z,18.9
2018-11-26T10:25:44.900Z,18.9
2018-11-26T10:26:46.814Z,19
2018-11-26T10:27:48.716Z,18.9
2018-11-26T10:28:50.616Z,18.9
2018-11-26T10:29:52.522Z,18.8
2018-11-26T10:30:54.143Z,18.9
2018-11-26T10:31:55.212Z,18.9
2018-11-26T10:32:56.545Z,18.9
2018-11-26T10:33:58.444Z,19
2018-11-26T10:34:59.783Z,19
2018-11-26T10:36:01.403Z,18.9
2018-11-26T10:37:03.306Z,18.9
2018-11-26T10:38:05.208Z,19
2018-11-26T10:39:06.832Z,18.9
2018-11-26T10:40:08.456Z,18.9
2018-11-26T10:41:10.372Z,18.9
2018-11-26T10:42:12.290Z,19
2018-11-26T10:43:13.606Z,19
2018-11-26T10:44:14.938Z,19
2018-11-26T10:45:16.562Z,18.9
2018-11-26T10:46:18.465Z,19
2018-11-26T10:47:20.362Z,18.9
2018-11-26T10:48:21.973Z,19
2018-11-26T10:49:23.605Z,19
2018-11-26T10:50:25.504Z,19
2018-11-26T10:51:26.855Z,19
2018-11-26T10:52:28.750Z,19
2018-11-26T10:53:30.356Z,19.1
2018-11-26T10:54:31.430Z,19.1
2018-11-26T10:55:33.338Z,19.1
2018-11-26T10:56:34.676Z,19.1
2018-11-26T10:57:36.301Z,19.1
2018-11-26T10:58:37.630Z,19.2
2018-11-26T10:59:39.255Z,19.1
2018-11-26T11:00:41.154Z,19.1
2018-11-26T11:01:42.805Z,19.1
2018-11-26T11:02:44.426Z,19.1
2018-11-26T11:03:46.328Z,19.1
2018-11-26T11:04:47.948Z,19.1
2018-11-26T11:05:49.579Z,19
2018-11-26T11:06:55.630Z,18.9
2018-11-26T11:07:57.677Z,19
2018-11-26T11:08:59.011Z,19
2018-11-26T11:10:00.341Z,19.1
2018-11-26T11:11:01.971Z,19.1
2018-11-26T11:12:03.601Z,19.1
2018-11-26T11:13:05.261Z,19.1
2018-11-26T11:14:06.313Z,19.1
2018-11-26T11:15:08.216Z,19.1
2018-11-26T11:16:09.265Z,19.1
2018-11-26T11:17:10.876Z,19.1
2018-11-26T11:18:12.201Z,19.1
2018-11-26T11:19:14.103Z,19.1
2018-11-26T11:20:15.440Z,19.2
2018-11-26T11:21:17.067Z,19.2
2018-11-26T11:22:18.695Z,19.2
2018-11-26T11:23:20.314Z,19.2
2018-11-26T11:24:21.971Z,19.1
2018-11-26T11:25:23.580Z,19.2
2018-11-26T11:26:25.212Z,19.2
2018-11-26T11:27:27.111Z,19.3
2018-11-26T11:28:28.712Z,19.3
2018-11-26T11:29:30.615Z,19.2
2018-11-26T11:30:32.515Z,19.2
2018-11-26T11:31:33.843Z,19.2
2018-11-26T11:32:35.171Z,19
2018-11-26T11:33:36.796Z,19.1
2018-11-26T11:34:39.711Z,19.2
2018-11-26T11:35:41.043Z,19.1
2018-11-26T11:36:42.950Z,19.1
2018-11-26T11:37:44.854Z,19.1
2018-11-26T11:38:46.747Z,19.1
2018-11-26T11:39:48.084Z,19.2
2018-11-26T11:40:49.130Z,19.3
2018-11-26T11:41:50.194Z,19.3
2018-11-26T11:42:52.093Z,19.2
2018-11-26T11:43:53.719Z,19.3
2018-11-26T11:44:55.624Z,19.2
2018-11-26T11:45:57.519Z,19.3
2018-11-26T11:46:59.146Z,19.2
2018-11-26T11:48:00.758Z,19.3
2018-11-26T11:49:02.653Z,19.3
2018-11-26T11:50:04.278Z,19.2
2018-11-26T11:51:06.179Z,19.3
2018-11-26T11:52:08.080Z,19.3
2018-11-26T11:53:09.705Z,19.4
2018-11-26T11:54:11.329Z,19.3
2018-11-26T11:55:12.694Z,19.3
2018-11-26T11:56:13.746Z,19.4
2018-11-26T11:57:15.087Z,19.3
2018-11-26T11:58:16.417Z,19.2
2018-11-26T11:59:18.040Z,19.3
2018-11-26T12:00:19.694Z,19.3
2018-11-26T12:01:21.318Z,19.1
2018-11-26T12:02:22.669Z,19.2
2018-11-26T12:03:24.653Z,19.2
2018-11-26T12:04:26.253Z,19.3
2018-11-26T12:05:27.878Z,19.2
2018-11-26T12:06:29.779Z,19.2
2018-11-26T12:07:31.402Z,19.2
2018-11-26T12:08:32.727Z,19.2
2018-11-26T12:09:33.835Z,19.2
2018-11-26T12:10:35.171Z,19.3
2018-11-26T12:11:37.069Z,19.3
2018-11-26T12:12:38.692Z,19.3
2018-11-26T12:13:40.047Z,19.4
2018-11-26T12:14:41.393Z,19.4
2018-11-26T12:15:42.734Z,19.4
2018-11-26T12:16:44.339Z,19.3
2018-11-26T12:17:45.673Z,19.3
2018-11-26T12:18:47.304Z,19.3
2018-11-26T12:19:48.933Z,19.3
2018-11-26T12:20:50.335Z,19.3
2018-11-26T12:21:52.209Z,19.3
2018-11-26T12:22:54.490Z,19.3
2018-11-26T12:23:56.103Z,19.3
2018-11-26T12:24:57.725Z,19.2
2018-11-26T12:25:59.085Z,19.2
2018-11-26T12:27:00.452Z,19.2
2018-11-26T12:28:02.370Z,19.2
2018-11-26T12:29:03.712Z,19.2
2018-11-26T12:30:04.504Z,19.3
2018-11-26T12:31:06.411Z,19.3
2018-11-26T12:32:07.744Z,19.3
2018-11-26T12:33:09.366Z,19.3
2018-11-26T12:34:11.264Z,19.3
2018-11-26T12:35:12.314Z,19.3
2018-11-26T12:36:13.944Z,19.2
2018-11-26T12:37:15.845Z,19.2
2018-11-26T12:38:17.742Z,19.3
2018-11-26T12:39:18.844Z,19.2
2018-11-26T12:40:20.944Z,19.3
2018-11-26T12:41:22.843Z,19.3
2018-11-26T12:42:24.195Z,19.2
2018-11-26T12:43:25.797Z,19.1
2018-11-26T12:44:27.423Z,19.2
2018-11-26T12:45:29.321Z,19.3
2018-11-26T12:46:30.945Z,19.3
2018-11-26T12:47:32.294Z,19.3
2018-11-26T12:48:33.623Z,19.2
2018-11-26T12:49:35.317Z,19.3
2018-11-26T12:50:36.943Z,19.3
2018-11-26T12:51:37.719Z,19.3
2018-11-26T12:52:39.341Z,19.3
2018-11-26T12:53:40.686Z,19.3
2018-11-26T12:54:42.313Z,19.3
2018-11-26T12:55:43.653Z,19.3
2018-11-26T12:56:45.255Z,19.2
2018-11-26T12:57:46.599Z,19.2
2018-11-26T12:58:48.230Z,19.3
2018-11-26T12:59:49.856Z,19.4
2018-11-26T13:00:51.475Z,19.3
2018-11-26T13:01:52.915Z,19.3
2018-11-26T13:02:54.542Z,19.3
2018-11-26T13:03:55.866Z,19.2
2018-11-26T13:04:56.942Z,19.2
2018-11-26T13:05:58.564Z,19.2
2018-11-26T13:07:00.172Z,19.3
2018-11-26T13:08:01.795Z,19.3
2018-11-26T13:09:03.420Z,19.2
2018-11-26T13:10:05.322Z,19.3
2018-11-26T13:11:06.665Z,19.3
2018-11-26T13:12:08.290Z,19.3
2018-11-26T13:13:09.637Z,19.4
2018-11-26T13:14:11.535Z,19.4
2018-11-26T13:15:13.435Z,19.4
2018-11-26T13:16:15.336Z,19.3
2018-11-26T13:17:17.233Z,19.4
2018-11-26T13:18:18.861Z,19.4
2018-11-26T13:19:20.763Z,19.3
2018-11-26T13:20:22.692Z,19.4
2018-11-26T13:21:24.322Z,19.4
2018-11-26T13:22:26.223Z,19.3
2018-11-26T13:23:27.846Z,19.3
2018-11-26T13:24:29.467Z,19.3
2018-11-26T13:25:31.367Z,19.3
2018-11-26T13:26:32.990Z,19.2
2018-11-26T13:27:34.628Z,19.2
2018-11-26T13:28:35.954Z,19.3
2018-11-26T13:29:37.848Z,19.3
2018-11-26T13:30:38.924Z,19.3
2018-11-26T13:31:40.919Z,19.3
2018-11-26T13:32:42.525Z,19.4
2018-11-26T13:33:43.870Z,19.3
2018-11-26T13:34:45.478Z,19.3
2018-11-26T13:35:46.836Z,19.3
2018-11-26T13:36:48.455Z,19.3
2018-11-26T13:37:50.358Z,19.3
2018-11-26T13:38:52.254Z,19.3
2018-11-26T13:39:53.578Z,19.3
2018-11-26T13:40:54.906Z,19.3
2018-11-26T13:41:56.857Z,19.4
2018-11-26T13:42:58.759Z,19.2
2018-11-26T13:44:00.656Z,19.3
2018-11-26T13:45:02.011Z,19.4
2018-11-26T13:46:03.341Z,19.4
2018-11-26T13:47:04.686Z,19.4
2018-11-26T13:48:06.035Z,19.4
2018-11-26T13:49:07.938Z,19.4
2018-11-26T13:50:09.838Z,19.5